createdAt,value
2022-09-21T06:15:54.679Z,11.20
2022-09-21T06:18:42.300Z,11.20
2022-09-21T06:21:28.991Z,12.00
2022-09-21T06:24:15.548Z,11.35
2022-09-21T06:27:01.753Z,13.68
2022-09-21T06:29:47.647Z,15.57
2022-09-21T06:32:34.052Z,9.55
2022-09-21T06:35:20.187Z,11.80
2022-09-21T06:38:07.983Z,11.85
2022-09-21T06:40:54.449Z,21.05
2022-09-21T06:43:40.987Z,13.20
2022-09-21T06:46:26.908Z,11.20
2022-09-21T06:49:13.165Z,12.68
2022-09-21T06:51:59.475Z,17.20
2022-09-21T06:54:45.923Z,17.90
2022-09-21T06:57:32.305Z,10.05
2022-09-21T07:00:18.715Z,11.38
2022-09-21T07:03:04.394Z,11.38
2022-09-21T07:05:51.301Z,10.65
2022-09-21T07:11:46.614Z,15.32
2022-09-21T07:14:32.746Z,15.10
2022-09-21T07:17:19.491Z,10.43
2022-09-21T07:20:08.101Z,9.10
2022-09-21T07:22:54.683Z,9.18
2022-09-21T07:25:42.143Z,8.52
2022-09-21T07:28:29.006Z,9.52
2022-09-21T07:31:16.612Z,9.35
2022-09-21T07:34:03.328Z,8.77
2022-09-21T07:36:49.557Z,8.55
2022-09-21T07:39:35.965Z,7.28
2022-09-21T07:42:22.869Z,7.50
2022-09-21T07:45:10.153Z,11.77
2022-09-21T07:47:56.648Z,9.13
2022-09-21T07:50:43.021Z,8.98
2022-09-21T07:53:29.068Z,8.05
2022-09-21T07:56:16.991Z,9.00
2022-09-21T07:59:06.820Z,8.20
2022-09-21T08:01:53.451Z,8.52
2022-09-21T08:04:39.725Z,6.45
2022-09-21T08:07:25.488Z,6.10
2022-09-21T08:10:11.832Z,6.72
2022-09-21T08:12:58.268Z,7.60
2022-09-21T08:15:54.030Z,6.85
2022-09-21T08:18:41.585Z,6.87
2022-09-21T08:21:28.488Z,7.25
2022-09-21T08:24:14.825Z,6.20
2022-09-21T08:27:01.401Z,7.03
2022-09-21T08:29:48.001Z,5.15
2022-09-21T08:32:50.582Z,5.78
2022-09-21T08:35:37.607Z,6.03
2022-09-21T08:38:24.589Z,5.12
2022-09-21T08:41:46.210Z,8.63
2022-09-21T08:44:43.324Z,5.53
2022-09-21T08:47:43.701Z,5.85
2022-09-21T08:50:44.027Z,5.73
2022-09-21T08:53:42.304Z,4.95
2022-09-21T08:56:47.080Z,6.12
2022-09-21T08:59:35.311Z,5.28
2022-09-21T09:02:50.402Z,5.68
2022-09-21T09:05:42.895Z,6.05
2022-09-21T09:08:55.812Z,5.62
2022-09-21T09:57:14.786Z,4.97
2022-09-21T10:00:09.660Z,3.22
2022-09-21T10:02:59.050Z,5.50
2022-09-21T10:05:45.061Z,3.65
2022-09-21T10:08:44.833Z,3.45
2022-09-21T10:11:37.063Z,4.60
2022-09-21T10:14:25.038Z,3.70
2022-09-21T10:17:17.348Z,3.53
2022-09-21T10:20:06.310Z,3.72
2022-09-21T10:22:56.787Z,3.22
2022-09-21T11:37:18.816Z,0.82
2022-09-21T11:40:17.150Z,1.20
2022-09-21T11:55:18.407Z,1.92
2022-09-21T12:07:24.816Z,0.77
2022-09-21T12:42:05.071Z,1.65
2022-09-21T12:44:54.766Z,1.95
2022-09-21T12:47:49.696Z,2.05
2022-09-21T12:53:32.734Z,0.85
2022-09-21T13:34:15.837Z,1.17
2022-09-21T13:42:50.453Z,0.77
2022-09-21T13:45:36.731Z,1.60
2022-09-21T13:48:29.225Z,2.22
2022-09-21T13:51:16.084Z,2.10
2022-09-21T13:54:03.677Z,0.93
2022-09-21T13:57:08.450Z,1.15
2022-09-21T14:00:21.916Z,2.25
2022-09-21T14:03:17.342Z,1.65
2022-09-21T14:06:06.216Z,0.85
2022-09-21T14:09:02.286Z,0.82
2022-09-21T14:11:55.624Z,0.73
2022-09-21T14:14:41.747Z,1.55
2022-09-21T14:17:36.458Z,0.45
2022-09-21T14:23:25.346Z,2.78
2022-09-21T14:26:31.884Z,0.95
2022-09-21T14:29:39.612Z,0.80
2022-09-21T14:32:33.737Z,1.17
2022-09-21T14:35:22.763Z,1.25
2022-09-21T14:38:19.549Z,1.00
2022-09-21T14:41:07.738Z,1.00
2022-09-21T14:43:55.589Z,1.48
2022-09-21T14:46:50.918Z,1.83
2022-09-21T14:49:53.650Z,1.20
2022-09-21T14:52:40.074Z,2.75
2022-09-21T15:05:01.945Z,1.65
2022-09-21T15:48:01.021Z,2.97
2022-09-21T15:50:50.691Z,1.25
2022-09-21T15:53:45.776Z,2.20
2022-09-21T15:56:31.633Z,1.67
2022-09-21T15:59:20.737Z,1.40
2022-09-21T16:02:19.349Z,1.33
2022-09-21T16:05:08.753Z,1.33
2022-09-21T16:13:55.922Z,4.07
2022-09-21T23:57:02.599Z,5.37
2022-09-21T23:59:50.112Z,5.72
